Time;durP1;ratioP1;P1;durP2;ratioP2;P2;SDS_P1;SDS_P2;PMS_P1;PMS_P2;Temp;Humidity;BMP_temperature;BMP_pressure;BME280_temperature;BME280_humidity;BME280_pressure;Samples;Min_cycle;Max_cycle;Signal;HPM_P1;HPM_P2
2024/03/13 00:03:32;;;;;;;91.90;48.27;;;;;;;6.29;100.00;100621.56;5016501;56;1140572;-77
2024/03/13 00:08:36;;;;;;;79.40;41.75;;;;;;;6.22;100.00;100620.23;5064283;56;1140794;-77
2024/03/13 00:13:42;;;;;;;75.03;40.13;;;;;;;6.13;100.00;100622.06;5056736;56;1142938;-78
2024/03/13 00:18:47;;;;;;;149.38;51.53;;;;;;;6.07;100.00;100626.84;5079636;56;1142945;-73
2024/03/13 00:23:53;;;;;;;130.47;54.57;;;;;;;6.14;100.00;100625.07;5098597;57;1144859;-75
2024/03/13 00:28:59;;;;;;;139.63;58.70;;;;;;;6.18;100.00;100623.97;5078806;56;1144664;-75
2024/03/13 00:34:06;;;;;;;192.07;59.20;;;;;;;6.21;100.00;100621.64;5078285;56;1142706;-75
2024/03/13 00:39:11;;;;;;;259.57;55.23;;;;;;;6.05;100.00;100629.55;5098881;56;1150086;-73
2024/03/13 00:44:17;;;;;;;106.87;49.75;;;;;;;5.71;100.00;100631.88;5050540;56;1142648;-76
2024/03/13 00:49:23;;;;;;;84.32;42.80;;;;;;;5.54;100.00;100621.00;4995509;56;1142775;-76
2024/03/13 00:54:31;;;;;;;96.70;46.93;;;;;;;5.60;100.00;100621.98;5016227;56;1142631;-75
2024/03/13 00:59:40;;;;;;;119.00;51.80;;;;;;;5.68;100.00;100616.77;4996466;57;1142643;-78
2024/03/13 01:04:48;;;;;;;122.40;55.57;;;;;;;5.77;100.00;100617.58;4995605;56;1144688;-73
2024/03/13 01:09:53;;;;;;;127.47;56.63;;;;;;;5.80;100.00;100627.45;4996013;57;1143045;-78
2024/03/13 01:14:59;;;;;;;119.87;57.37;;;;;;;5.70;100.00;100624.94;5016054;56;1142532;-79
2024/03/13 01:20:07;;;;;;;109.03;52.60;;;;;;;5.65;100.00;100621.73;4996146;56;1142973;-79
2024/03/13 01:25:12;;;;;;;98.47;50.40;;;;;;;5.57;100.00;100627.39;4996573;56;1142860;-75
2024/03/13 01:30:18;;;;;;;90.25;49.48;;;;;;;5.57;100.00;100627.39;5015880;56;1140897;-73
2024/03/13 01:35:24;;;;;;;127.95;55.45;;;;;;;5.51;100.00;100630.80;5001549;56;1140691;-77
2024/03/13 01:57:12;;;;;;;88.30;43.65;;;;;;;5.07;100.00;100633.21;4859163;58;1143018;-76
2024/03/13 02:02:29;;;;;;;84.57;40.30;;;;;;;5.04;100.00;100632.09;4911830;57;1261559;-74
2024/03/13 02:07:30;;;;;;;96.03;43.13;;;;;;;5.10;100.00;100628.66;4878413;58;1143082;-78
2024/03/13 02:12:36;;;;;;;82.97;41.40;;;;;;;5.11;100.00;100635.59;4937991;58;1142848;-74
2024/03/13 02:17:42;;;;;;;87.47;42.05;;;;;;;5.01;100.00;100633.55;4937822;58;1142809;-76
2024/03/13 02:22:49;;;;;;;89.10;44.65;;;;;;;5.13;100.00;100636.37;4938561;58;1140946;-78
2024/03/13 02:27:54;;;;;;;68.67;38.03;;;;;;;5.20;100.00;100637.71;5025182;56;1140973;-75
2024/03/13 02:33:00;;;;;;;67.10;35.47;;;;;;;5.27;100.00;100644.34;4995968;57;1140875;-75
2024/03/13 02:38:07;;;;;;;68.77;35.57;;;;;;;5.28;100.00;100639.48;5026346;56;1140760;-77
2024/03/13 02:43:13;;;;;;;64.17;32.77;;;;;;;5.28;100.00;100645.19;5045368;56;1142948;-75
2024/03/13 02:48:19;;;;;;;88.05;43.42;;;;;;;5.34;100.00;100638.78;5026143;56;1142765;-77
2024/03/13 02:53:25;;;;;;;115.32;49.55;;;;;;;5.32;100.00;100632.30;5026320;56;1142867;-77
2024/03/13 02:58:31;;;;;;;109.80;48.63;;;;;;;5.30;100.00;100636.31;5045396;56;1142972;-72
2024/03/13 03:03:37;;;;;;;89.10;42.10;;;;;;;5.18;100.00;100628.27;5025551;56;1143033;-72
2024/03/13 03:08:44;;;;;;;79.80;38.40;;;;;;;5.05;100.00;100634.59;5025197;57;1140907;-75
2024/03/13 03:13:49;;;;;;;55.73;30.00;;;;;;;4.99;100.00;100648.05;4992562;57;1140938;-77
2024/03/13 03:18:55;;;;;;;55.40;30.77;;;;;;;4.76;100.00;100659.70;5036069;57;1142808;-73
2024/03/13 03:24:00;;;;;;;52.23;30.30;;;;;;;4.63;100.00;100665.66;5013521;57;1143072;-76
2024/03/13 03:29:08;;;;;;;50.57;28.40;;;;;;;4.52;100.00;100665.73;5017655;57;1142834;-74
2024/03/13 03:34:14;;;;;;;51.10;28.47;;;;;;;4.62;100.00;100660.02;5038922;57;1142766;-74
2024/03/13 03:39:24;;;;;;;52.95;29.75;;;;;;;4.81;100.00;100659.02;5025988;55;1142901;-75
2024/03/13 03:44:29;;;;;;;59.27;34.63;;;;;;;4.98;100.00;100657.30;4998945;55;1143054;-78
2024/03/13 03:49:34;;;;;;;71.17;36.73;;;;;;;5.03;100.00;100648.73;4989379;55;1140638;-73
2024/03/13 03:54:39;;;;;;;76.97;39.53;;;;;;;4.99;100.00;100661.16;4939006;57;1140874;-74
2024/03/13 03:59:45;;;;;;;62.20;33.50;;;;;;;4.93;100.00;100660.15;4928255;57;1140752;-78
2024/03/13 04:04:50;;;;;;;75.13;36.47;;;;;;;4.88;100.00;100664.80;4957071;57;1140850;-77
2024/03/13 04:09:56;;;;;;;68.93;34.67;;;;;;;4.77;100.00;100665.33;4886319;58;1140838;-78
2024/03/13 04:15:05;;;;;;;71.80;36.17;;;;;;;4.85;100.00;100664.95;4991989;57;1140649;-74
2024/03/13 04:20:17;;;;;;;67.03;34.53;;;;;;;4.96;100.00;100656.06;5036347;57;1143006;-77
2024/03/13 04:25:24;;;;;;;88.47;37.87;;;;;;;5.00;100.00;100674.64;5020936;57;1143021;-74
2024/03/13 04:30:29;;;;;;;67.27;36.43;;;;;;;4.94;100.00;100677.56;5021065;57;1143060;-77
2024/03/13 04:35:35;;;;;;;66.60;36.57;;;;;;;5.04;100.00;100681.39;5040803;57;1143061;-76
2024/03/13 04:40:43;;;;;;;77.67;39.20;;;;;;;4.96;100.00;100677.03;5010800;56;1140768;-78
2024/03/13 04:45:48;;;;;;;77.83;39.50;;;;;;;4.98;100.00;100683.05;5019919;56;1140750;-78
2024/03/13 04:50:54;;;;;;;77.77;37.37;;;;;;;5.06;100.00;100683.94;5038899;56;1140819;-76
2024/03/13 04:55:59;;;;;;;77.93;36.90;;;;;;;5.14;100.00;100681.78;5021150;57;1141047;-74
2024/03/13 05:01:05;;;;;;;75.13;38.37;;;;;;;5.18;100.00;100680.70;5012307;57;1142929;-78
2024/03/13 05:06:11;;;;;;;66.53;34.87;;;;;;;5.24;100.00;100685.14;5016077;57;1142867;-78
2024/03/13 05:11:18;;;;;;;77.45;36.77;;;;;;;5.21;100.00;100683.98;4931893;58;1142712;-75
2024/03/13 05:16:24;;;;;;;67.45;34.78;;;;;;;5.22;100.00;100682.20;5004753;57;1143072;-77
2024/03/13 05:21:29;;;;;;;73.10;38.40;;;;;;;5.08;100.00;100697.36;4949616;57;1142737;-78
2024/03/13 05:26:35;;;;;;;82.07;40.43;;;;;;;5.04;100.00;100703.67;4944072;57;1140509;-72
2024/03/13 05:31:41;;;;;;;71.20;37.80;;;;;;;5.11;100.00;100706.38;4941298;58;1140492;-71
2024/03/13 05:36:46;;;;;;;71.45;37.80;;;;;;;5.22;100.00;100696.62;4939942;58;1143018;-71
2024/03/13 05:41:52;;;;;;;67.70;36.10;;;;;;;5.35;100.00;100705.54;4897021;58;1142761;-72
2024/03/13 05:46:58;;;;;;;71.90;38.07;;;;;;;5.35;100.00;100695.55;4832654;58;1142860;-71
2024/03/13 05:52:04;;;;;;;79.37;42.27;;;;;;;5.48;100.00;100702.67;4861569;58;1142689;-71
2024/03/13 05:57:10;;;;;;;102.87;47.83;;;;;;;5.51;100.00;100705.11;4880634;59;1143382;-72
2024/03/13 06:02:15;;;;;;;104.00;53.00;;;;;;;5.50;100.00;100699.97;4944301;58;1146728;-71
2024/03/13 06:07:21;;;;;;;105.63;53.27;;;;;;;5.49;100.00;100700.90;4945387;58;1143061;-72
2024/03/13 06:12:27;;;;;;;87.43;46.53;;;;;;;5.52;100.00;100712.52;4953040;57;1144851;-70
2024/03/13 06:17:33;;;;;;;70.20;36.97;;;;;;;5.42;100.00;100720.03;4938975;58;1142741;-71
2024/03/13 06:22:44;;;;;;;67.73;35.63;;;;;;;5.40;100.00;100712.71;4939847;58;1142955;-72
2024/03/13 06:27:50;;;;;;;63.33;34.90;;;;;;;5.52;100.00;100715.98;4951243;57;1142935;-72
2024/03/13 06:32:54;;;;;;;94.53;42.10;;;;;;;5.46;100.00;100722.89;4834901;59;1143200;-71
2024/03/13 06:37:59;;;;;;;98.53;43.83;;;;;;;5.47;100.00;100715.41;4814767;57;1140810;-71
2024/03/13 06:43:05;;;;;;;114.97;45.37;;;;;;;5.51;100.00;100720.00;4903054;57;1143058;-72
2024/03/13 06:48:11;;;;;;;111.37;49.35;;;;;;;5.52;100.00;100726.94;4971967;57;1145126;-71
2024/03/13 06:53:16;;;;;;;111.00;53.47;;;;;;;5.58;100.00;100731.41;5027081;56;1145099;-72
2024/03/13 06:58:22;;;;;;;141.45;59.60;;;;;;;5.64;100.00;100727.63;4958953;57;1145061;-73
2024/03/13 07:03:28;;;;;;;110.53;51.30;;;;;;;5.70;100.00;100732.98;4972527;57;1144850;-73
2024/03/13 07:08:35;;;;;;;104.13;46.73;;;;;;;5.77;100.00;100736.98;4913314;57;1142794;-71
2024/03/13 07:13:42;;;;;;;67.93;38.90;;;;;;;5.79;100.00;100745.16;4989062;57;1145060;-73
2024/03/13 07:18:47;;;;;;;69.62;41.02;;;;;;;5.86;100.00;100740.41;4983567;57;1142958;-73
2024/03/13 07:23:53;;;;;;;64.07;35.17;;;;;;;5.88;100.00;100742.06;5020289;56;1142792;-73
2024/03/13 07:28:59;;;;;;;68.63;37.67;;;;;;;5.86;100.00;100742.57;5047694;56;1143298;-77
2024/03/13 07:34:07;;;;;;;61.70;32.43;;;;;;;5.79;100.00;100746.48;4967537;56;1140579;-75
2024/03/13 07:39:14;;;;;;;66.50;34.47;;;;;;;5.66;100.00;100750.20;4920634;57;1140620;-79
2024/03/13 07:44:20;;;;;;;65.23;35.27;;;;;;;5.66;100.00;100750.20;4995830;57;1142633;-78
2024/03/13 07:49:30;;;;;;;133.18;53.35;;;;;;;5.66;100.00;100750.66;4937076;56;1143296;-74
2024/03/13 07:54:37;;;;;;;166.57;81.03;;;;;;;5.69;100.00;100748.34;4962674;57;1144831;-75
2024/03/13 07:59:45;;;;;;;87.60;52.67;;;;;;;5.79;100.00;100753.03;4932354;57;1145267;-76
2024/03/13 08:04:50;;;;;;;64.42;37.03;;;;;;;5.79;100.00;100760.06;4940634;57;1143024;-78
2024/03/13 08:09:55;;;;;;;97.03;49.50;;;;;;;5.75;100.00;100758.06;4962372;57;1142842;-75
2024/03/13 08:15:01;;;;;;;113.93;58.03;;;;;;;5.71;100.00;100763.55;4957355;56;1140913;-77
2024/03/13 08:20:12;;;;;;;69.67;37.60;;;;;;;5.77;100.00;100770.64;4962815;56;1145071;-76
2024/03/13 08:25:19;;;;;;;265.70;121.77;;;;;;;5.79;100.00;100774.03;5042830;55;1262198;-73
2024/03/13 08:30:26;;;;;;;141.73;68.70;;;;;;;5.83;100.00;100783.41;4993107;56;1147318;-75
2024/03/13 08:35:32;;;;;;;123.65;62.10;;;;;;;5.90;100.00;100786.14;4920954;57;1144775;-81
2024/03/13 08:40:38;;;;;;;79.30;41.80;;;;;;;5.95;100.00;100783.27;4962017;57;1145077;-83
2024/03/13 08:45:43;;;;;;;79.43;41.73;;;;;;;5.99;100.00;100791.34;5009200;57;1142866;-78
2024/03/13 08:50:49;;;;;;;72.15;37.65;;;;;;;6.14;100.00;100790.50;5001059;57;1142919;-80
2024/03/13 08:55:54;;;;;;;74.67;37.37;;;;;;;6.23;100.00;100788.70;4982512;56;1142789;-77
2024/03/13 09:01:01;;;;;;;68.93;37.33;;;;;;;6.33;100.00;100787.72;4937649;57;1143273;-82
2024/03/13 09:06:19;;;;;;;69.30;35.33;;;;;;;6.56;100.00;100789.06;4960276;57;1142971;-73
2024/03/13 09:11:20;;;;;;;74.55;40.17;;;;;;;6.56;100.00;100789.06;5025145;56;1143165;-75
2024/03/13 09:16:25;;;;;;;72.35;39.58;;;;;;;6.62;100.00;100790.02;5009692;57;1143137;-75
2024/03/13 09:21:31;;;;;;;74.55;39.48;;;;;;;6.59;100.00;100791.50;4992577;57;1142685;-72
2024/03/13 09:26:38;;;;;;;78.23;41.13;;;;;;;6.65;100.00;100799.89;5004181;57;1143430;-72
2024/03/13 09:31:44;;;;;;;72.13;37.23;;;;;;;6.78;100.00;100804.45;4961566;56;1142540;-74
2024/03/13 09:36:49;;;;;;;68.53;36.30;;;;;;;6.88;100.00;100810.86;4906309;57;1142684;-72
2024/03/13 09:41:58;;;;;;;58.57;32.77;;;;;;;6.99;100.00;100810.64;4926824;57;1142804;-74
2024/03/13 09:47:05;;;;;;;67.57;37.27;;;;;;;7.02;100.00;100813.56;4924910;57;1142911;-74
2024/03/13 09:52:15;;;;;;;69.70;37.73;;;;;;;7.04;100.00;100816.45;4915115;58;1142783;-72
2024/03/13 09:57:22;;;;;;;61.83;34.50;;;;;;;7.11;100.00;100824.00;4970190;57;1142788;-75
2024/03/13 10:02:32;;;;;;;73.90;40.70;;;;;;;7.13;100.00;100822.98;4887753;57;1142989;-74
2024/03/13 10:07:38;;;;;;;64.43;36.93;;;;;;;7.19;100.00;100823.92;4899632;56;1142702;-71
2024/03/13 10:12:45;;;;;;;62.53;32.13;;;;;;;7.28;100.00;100824.71;5077081;56;1142908;-72
2024/03/13 10:18:13;;;;;;;65.93;35.43;;;;;;;7.39;100.00;100821.44;5095579;56;1142820;-75
2024/03/13 10:23:20;;;;;;;60.30;34.53;;;;;;;7.50;100.00;100830.00;5076510;56;1143079;-74
2024/03/13 10:28:27;;;;;;;64.10;35.80;;;;;;;7.62;100.00;100830.13;5013491;56;1142840;-74
2024/03/13 10:33:34;;;;;;;64.37;36.50;;;;;;;7.78;100.00;100808.14;5098130;56;1143227;-73
2024/03/13 10:38:41;;;;;;;52.47;31.53;;;;;;;7.93;100.00;100833.53;5053933;56;1142837;-74
2024/03/13 10:43:47;;;;;;;57.77;32.10;;;;;;;8.03;100.00;100837.28;5013188;57;1142506;-73
2024/03/13 10:48:53;;;;;;;53.53;30.33;;;;;;;8.06;100.00;100835.30;5077283;56;1142967;-72
2024/03/13 10:54:00;;;;;;;51.80;30.93;;;;;;;8.13;100.00;100831.33;5012969;57;1143127;-73
2024/03/13 10:59:05;;;;;;;57.33;29.70;;;;;;;8.26;100.00;100830.09;4957943;57;1142901;-75
2024/03/13 11:04:14;;;;;;;55.13;30.30;;;;;;;8.36;100.00;100825.13;5072265;56;1142557;-73
2024/03/13 11:09:22;;;;;;;87.04;39.76;;;;;;;8.44;100.00;100818.89;4959284;57;1142876;-75
2024/03/13 11:14:30;;;;;;;58.08;31.87;;;;;;;8.45;100.00;100790.27;5040858;56;1143018;-78
2024/03/13 11:19:38;;;;;;;54.50;29.27;;;;;;;8.66;100.00;100806.50;5004655;57;1142783;-81
2024/03/13 11:24:44;;;;;;;49.47;27.30;;;;;;;8.74;100.00;100802.41;4956463;57;1142924;-77
2024/03/13 11:29:52;;;;;;;51.67;27.73;;;;;;;8.90;100.00;100794.80;5086680;57;1142796;-78
2024/03/13 11:34:58;;;;;;;53.87;31.40;;;;;;;9.03;100.00;100795.67;5060108;56;1142678;-81
2024/03/13 11:40:06;;;;;;;52.43;31.23;;;;;;;9.15;100.00;100796.20;5075900;56;1142842;-79
2024/03/13 11:45:19;;;;;;;47.90;27.40;;;;;;;9.20;100.00;100790.59;5019712;57;1142925;-79
2024/03/13 11:50:26;;;;;;;49.73;27.22;;;;;;;9.25;100.00;100790.66;4919225;57;1142840;-77
2024/03/13 11:55:32;;;;;;;51.40;28.13;;;;;;;9.29;100.00;100780.27;4946961;56;1142968;-76
2024/03/13 12:00:38;;;;;;;50.63;27.90;;;;;;;9.34;100.00;100787.38;5029664;57;1142911;-80
2024/03/13 12:05:45;;;;;;;54.93;30.37;;;;;;;9.38;100.00;100777.47;4992215;57;1142859;-77
2024/03/13 12:10:53;;;;;;;51.33;28.00;;;;;;;9.49;100.00;100776.24;4989039;57;1143124;-76
2024/03/13 12:16:00;;;;;;;56.90;31.93;;;;;;;9.55;100.00;100781.59;4921375;57;1143251;-75
2024/03/13 12:21:07;;;;;;;62.30;33.83;;;;;;;9.59;100.00;100774.68;4973675;57;1142729;-73
2024/03/13 12:26:13;;;;;;;52.15;29.15;;;;;;;9.64;100.00;100778.30;4931608;57;1142703;-79
2024/03/13 12:31:19;;;;;;;50.80;29.00;;;;;;;9.73;100.00;100783.80;4956713;57;1142655;-76
2024/03/13 12:36:28;;;;;;;47.70;27.40;;;;;;;9.72;100.00;100768.91;4916301;57;1143031;-70
2024/03/13 12:41:32;;;;;;;45.88;27.65;;;;;;;9.78;100.00;100779.50;4965921;57;1142769;-75
2024/03/13 12:46:40;;;;;;;51.02;27.50;;;;;;;9.78;100.00;100776.86;5004141;57;1143028;-75
2024/03/13 12:51:45;;;;;;;44.57;27.00;;;;;;;9.79;100.00;100775.91;5075198;56;1143054;-73
2024/03/13 12:56:51;;;;;;;43.77;25.90;;;;;;;9.85;100.00;100776.34;5094636;56;1142920;-77
2024/03/13 13:01:57;;;;;;;43.60;27.57;;;;;;;9.89;100.00;100780.94;4944719;57;1142558;-75
2024/03/13 13:07:03;;;;;;;49.57;29.23;;;;;;;9.91;100.00;100783.00;4975637;56;1142721;-73
2024/03/13 13:12:16;;;;;;;43.23;25.23;;;;;;;9.91;100.00;100783.47;4961487;57;1142847;-78
2024/03/13 13:17:22;;;;;;;41.48;23.75;;;;;;;9.93;100.00;100785.02;5049802;56;1143033;-74
2024/03/13 13:22:28;;;;;;;35.73;23.02;;;;;;;9.93;100.00;100785.02;5098547;56;1142926;-70
2024/03/13 13:27:33;;;;;;;33.05;23.20;;;;;;;9.98;100.00;100778.95;5098307;56;1143029;-81
2024/03/13 13:32:40;;;;;;;38.45;24.75;;;;;;;10.05;100.00;100786.83;4989617;57;1142872;-77
2024/03/13 13:37:48;;;;;;;36.10;24.37;;;;;;;10.07;100.00;100795.49;5033302;57;1145198;-75
2024/03/13 13:42:54;;;;;;;43.60;23.05;;;;;;;10.07;100.00;100792.00;5038671;56;1145019;-79
2024/03/13 13:48:00;;;;;;;30.53;20.17;;;;;;;10.10;100.00;100790.44;5047280;57;1144868;-75
2024/03/13 13:53:07;;;;;;;30.40;22.50;;;;;;;10.13;100.00;100788.42;5024346;57;1144917;-81
2024/03/13 13:58:13;;;;;;;30.90;22.93;;;;;;;10.13;100.00;100784.47;4998250;57;1145098;-78
2024/03/13 14:03:24;;;;;;;34.77;22.40;;;;;;;10.13;100.00;100783.14;4936840;57;1144829;-71
2024/03/13 14:08:26;;;;;;;33.63;21.50;;;;;;;10.20;100.00;100778.31;4969201;57;1154297;-72
2024/03/13 14:13:33;;;;;;;31.87;19.60;;;;;;;10.24;100.00;100787.68;4962745;57;1145243;-73
2024/03/13 14:18:39;;;;;;;37.00;22.42;;;;;;;10.23;100.00;100782.87;4937437;57;1144937;-79
2024/03/13 14:23:48;;;;;;;35.93;22.73;;;;;;;10.22;100.00;100790.94;4978227;56;1145251;-77
2024/03/13 14:28:53;;;;;;;43.90;24.87;;;;;;;10.23;100.00;100788.16;4941355;57;1145071;-73
2024/03/13 14:33:59;;;;;;;34.57;23.13;;;;;;;10.28;100.00;100789.64;4931462;57;1144894;-74
2024/03/13 14:39:13;;;;;;;34.43;22.03;;;;;;;10.29;100.00;100782.08;4925223;57;1144792;-75
2024/03/13 14:44:12;;;;;;;34.13;21.27;;;;;;;10.33;100.00;100776.46;4930366;57;1144880;-75
2024/03/13 14:49:18;;;;;;;39.23;23.20;;;;;;;10.38;100.00;100782.75;5002446;57;1144894;-76
2024/03/13 14:54:25;;;;;;;31.27;22.30;;;;;;;10.37;100.00;100779.26;4988600;57;1147968;-77
2024/03/13 14:59:30;;;;;;;33.60;21.13;;;;;;;10.33;100.00;100783.08;4936993;58;1145025;-71
2024/03/13 15:04:36;;;;;;;35.70;21.25;;;;;;;10.30;100.00;100778.48;4981540;57;1144667;-76
2024/03/13 15:09:43;;;;;;;32.40;22.83;;;;;;;10.32;100.00;100769.97;5040733;57;1144982;-72
2024/03/13 15:14:49;;;;;;;38.30;23.70;;;;;;;10.31;100.00;100771.77;5040581;57;1144925;-70
2024/03/13 15:19:55;;;;;;;39.33;21.45;;;;;;;10.26;100.00;100771.23;5060124;57;1145197;-75
2024/03/13 15:25:05;;;;;;;35.83;21.87;;;;;;;10.27;100.00;100775.57;5040081;57;1145096;-78
2024/03/13 15:30:14;;;;;;;105.03;49.57;;;;;;;10.26;100.00;100761.98;5039937;57;1144604;-72
2024/03/13 15:35:16;;;;;;;65.23;33.33;;;;;;;10.29;100.00;100767.05;5060672;56;1146958;-73
2024/03/13 15:40:22;;;;;;;35.27;22.70;;;;;;;10.26;100.00;100773.88;5049083;56;1145276;-83
2024/03/13 15:45:31;;;;;;;44.47;24.57;;;;;;;10.29;100.00;100759.13;5039473;57;1144937;-76
2024/03/13 15:50:36;;;;;;;42.23;25.13;;;;;;;10.34;100.00;100768.05;5019236;57;1145276;-79
2024/03/13 15:55:41;;;;;;;77.08;39.55;;;;;;;10.29;100.00;100768.38;5099286;56;1144945;-73
2024/03/13 16:00:48;;;;;;;71.67;35.43;;;;;;;10.23;100.00;100767.02;5065128;56;1145037;-71
2024/03/13 16:05:54;;;;;;;36.85;22.60;;;;;;;10.20;100.00;100769.05;4955559;57;1145110;-76
2024/03/13 16:10:59;;;;;;;33.30;23.10;;;;;;;10.17;100.00;100771.41;5077973;56;1145092;-75
2024/03/13 16:16:06;;;;;;;37.37;22.57;;;;;;;10.14;100.00;100774.27;5079031;56;1145149;-75
2024/03/13 16:21:13;;;;;;;39.73;24.60;;;;;;;10.12;100.00;100776.64;5098867;57;1145001;-74
2024/03/13 16:26:18;;;;;;;37.07;24.37;;;;;;;10.10;100.00;100776.75;5072399;56;1144857;-78
2024/03/13 16:31:25;;;;;;;39.15;23.15;;;;;;;10.08;100.00;100776.02;5091715;57;1145090;-75
2024/03/13 16:36:35;;;;;;;49.65;29.15;;;;;;;10.08;100.00;100780.48;4996538;57;1144811;-77
2024/03/13 16:41:41;;;;;;;125.42;47.20;;;;;;;10.05;100.00;100780.22;4990759;56;1145124;-76
2024/03/13 16:46:47;;;;;;;147.02;61.37;;;;;;;10.03;100.00;100780.80;5056357;56;1147049;-73
2024/03/13 16:51:53;;;;;;;143.97;57.47;;;;;;;10.02;100.00;100787.03;4911459;58;1147022;-72
2024/03/13 16:56:58;;;;;;;104.93;46.70;;;;;;;9.99;100.00;100787.25;5030729;56;1147292;-72
2024/03/13 17:02:05;;;;;;;127.57;65.43;;;;;;;9.93;100.00;100794.78;4940468;57;1144886;-75
2024/03/13 17:07:11;;;;;;;219.67;100.20;;;;;;;9.79;100.00;100801.84;5078702;56;1144700;-78
2024/03/13 17:12:16;;;;;;;183.53;74.50;;;;;;;9.65;100.00;100801.97;5014968;57;1147133;-76
2024/03/13 17:17:22;;;;;;;109.22;48.95;;;;;;;9.51;100.00;100804.71;4994799;57;1144987;-74
2024/03/13 17:22:28;;;;;;;93.10;45.33;;;;;;;9.49;100.00;100804.81;5078002;57;1145237;-73
2024/03/13 17:27:34;;;;;;;84.10;41.87;;;;;;;9.47;100.00;100805.89;5098543;56;1151016;-75
2024/03/13 17:32:40;;;;;;;89.05;41.25;;;;;;;9.43;100.00;100808.37;5078258;56;1143115;-72
2024/03/13 17:37:48;;;;;;;99.40;46.83;;;;;;;9.39;100.00;100805.08;5074107;56;1142762;-77
2024/03/13 17:42:54;;;;;;;94.77;44.03;;;;;;;9.34;100.00;100811.14;5049659;56;1143032;-74
2024/03/13 17:48:00;;;;;;;94.57;42.30;;;;;;;9.32;100.00;100811.71;5056672;57;1142884;-76
2024/03/13 17:53:07;;;;;;;73.63;40.07;;;;;;;9.31;100.00;100811.38;5037295;57;1142748;-77
2024/03/13 17:58:13;;;;;;;101.17;48.80;;;;;;;9.28;100.00;100810.73;5037930;56;1143063;-72
2024/03/13 18:03:20;;;;;;;105.00;59.33;;;;;;;9.17;100.00;100816.70;5051846;57;1144776;-73
2024/03/13 18:08:26;;;;;;;106.97;58.00;;;;;;;9.04;100.00;100812.72;4997786;56;1145012;-77
2024/03/13 18:13:32;;;;;;;138.57;64.53;;;;;;;8.94;100.00;100818.72;5003583;57;1144889;-78
2024/03/13 18:18:38;;;;;;;161.28;80.75;;;;;;;8.87;100.00;100816.10;5015195;57;1144844;-75
2024/03/13 18:23:43;;;;;;;151.20;71.27;;;;;;;8.77;100.00;100819.35;5003151;57;1146138;-75
2024/03/13 18:28:50;;;;;;;157.97;68.15;;;;;;;8.73;100.00;100825.77;5072576;56;1145167;-76
2024/03/13 18:33:56;;;;;;;222.20;88.10;;;;;;;8.69;100.00;100836.16;5054170;56;1144951;-74
2024/03/13 18:39:02;;;;;;;259.37;103.53;;;;;;;8.63;100.00;100833.06;5037588;56;1145282;-77
2024/03/13 18:44:08;;;;;;;320.13;107.87;;;;;;;8.56;100.00;100839.19;5058626;56;1147339;-74
2024/03/13 18:49:14;;;;;;;417.43;132.40;;;;;;;8.53;100.00;100836.77;5072781;56;1147560;-75
2024/03/13 18:54:20;;;;;;;378.60;125.20;;;;;;;8.54;100.00;100837.14;5016915;56;1147081;-76
2024/03/13 18:59:28;;;;;;;385.27;118.80;;;;;;;8.57;100.00;100834.28;5077639;56;1146730;-74
2024/03/13 19:04:52;;;;;;;289.40;89.20;;;;;;;8.53;100.00;100838.09;5099047;56;1147254;-78
2024/03/13 19:09:57;;;;;;;338.80;100.37;;;;;;;8.44;100.00;100836.02;5062860;56;1145097;-75
2024/03/13 19:15:04;;;;;;;393.17;113.63;;;;;;;8.35;100.00;100841.42;5018473;56;1147357;-78
2024/03/13 19:20:11;;;;;;;428.50;124.67;;;;;;;8.27;100.00;100837.05;5063963;56;1146629;-76
2024/03/13 19:25:17;;;;;;;493.30;144.67;;;;;;;8.21;100.00;100838.77;5098577;56;1146640;-73
2024/03/13 19:30:23;;;;;;;459.27;147.13;;;;;;;8.11;100.00;100838.95;5097859;56;1146828;-75
2024/03/13 19:35:28;;;;;;;448.80;144.07;;;;;;;8.04;100.00;100841.14;5105224;56;1146805;-72
2024/03/13 19:40:34;;;;;;;340.43;111.17;;;;;;;7.93;100.00;100846.23;5011031;56;1147009;-80
2024/03/13 19:45:40;;;;;;;318.77;99.70;;;;;;;7.73;100.00;100842.17;5060689;56;1145063;-75
2024/03/13 19:50:46;;;;;;;309.37;101.42;;;;;;;7.69;100.00;100851.65;5063062;56;1144789;-83
2024/03/13 19:55:52;;;;;;;346.40;119.67;;;;;;;7.58;100.00;100848.36;5086468;56;1146939;-77
2024/03/13 20:00:58;;;;;;;335.83;118.77;;;;;;;7.54;100.00;100853.89;5064311;56;1147011;-78
2024/03/13 20:06:04;;;;;;;276.70;96.50;;;;;;;7.37;100.00;100854.41;5093053;56;1147191;-78
2024/03/13 20:11:12;;;;;;;245.60;84.37;;;;;;;7.30;100.00;100851.78;5117008;56;1142761;-77
2024/03/13 20:16:20;;;;;;;187.10;64.73;;;;;;;7.22;100.00;100855.78;5090733;56;1142685;-75
2024/03/13 20:21:25;;;;;;;136.83;49.40;;;;;;;7.19;100.00;100856.80;5098610;56;1144787;-76
2024/03/13 20:26:31;;;;;;;162.03;65.47;;;;;;;7.16;100.00;100854.84;5118738;56;1144840;-72
2024/03/13 20:31:37;;;;;;;182.10;71.53;;;;;;;7.13;100.00;100850.59;5098836;55;1144663;-76
2024/03/13 20:36:43;;;;;;;159.30;66.87;;;;;;;7.11;100.00;100852.94;5090921;55;1145129;-80
2024/03/13 20:41:50;;;;;;;169.62;69.97;;;;;;;7.05;100.00;100847.08;4972318;57;1142947;-76
2024/03/13 20:46:56;;;;;;;175.20;69.10;;;;;;;6.95;100.00;100851.66;5080816;56;1145267;-82
2024/03/13 20:52:04;;;;;;;206.77;85.60;;;;;;;6.90;100.00;100845.33;5062061;56;1144704;-73
2024/03/13 20:57:10;;;;;;;175.40;77.30;;;;;;;6.85;100.00;100845.23;5024449;56;1145245;-79
2024/03/13 21:02:15;;;;;;;200.17;78.47;;;;;;;6.78;100.00;100848.67;5033681;56;1144810;-82
2024/03/13 21:07:23;;;;;;;183.23;79.30;;;;;;;6.77;100.00;100847.44;5046313;56;1143001;-71
2024/03/13 21:12:31;;;;;;;183.77;78.70;;;;;;;6.71;100.00;100839.45;5050466;56;1145019;-76
2024/03/13 21:17:39;;;;;;;192.00;87.42;;;;;;;6.75;100.00;100840.09;5010076;56;1144806;-79
2024/03/13 21:22:45;;;;;;;189.27;83.33;;;;;;;6.82;100.00;100838.37;5078613;56;1146502;-76
2024/03/13 21:27:50;;;;;;;170.30;77.03;;;;;;;6.78;100.00;100835.98;5038774;56;1145079;-76
2024/03/13 21:32:56;;;;;;;133.97;62.73;;;;;;;6.72;100.00;100838.98;5012606;57;1142570;-75
2024/03/13 21:38:03;;;;;;;115.13;50.10;;;;;;;6.69;100.00;100840.00;5033704;57;1145123;-77
2024/03/13 21:43:09;;;;;;;143.00;67.37;;;;;;;6.75;100.00;100837.00;5036723;56;1145191;-83
2024/03/13 21:48:15;;;;;;;154.83;72.37;;;;;;;6.74;100.00;100830.52;5021928;56;1145323;-80
2024/03/13 21:53:20;;;;;;;160.50;74.60;;;;;;;6.65;100.00;100837.16;5031966;56;1144812;-76
2024/03/13 21:58:26;;;;;;;348.47;160.97;;;;;;;6.53;100.00;100833.91;5084665;55;1142774;-72
2024/03/13 22:03:32;;;;;;;211.80;97.57;;;;;;;6.46;100.00;100837.33;5052687;56;1148186;-78
2024/03/13 22:08:37;;;;;;;210.17;97.85;;;;;;;6.45;100.00;100830.37;5041487;56;1144882;-77
2024/03/13 22:13:43;;;;;;;199.87;94.37;;;;;;;6.56;100.00;100833.27;5038728;56;1145210;-76
2024/03/13 22:18:49;;;;;;;178.30;80.38;;;;;;;6.62;100.00;100829.44;5004527;57;1145347;-76
2024/03/13 22:23:54;;;;;;;174.43;83.23;;;;;;;6.48;100.00;100830.21;5013376;58;1142873;-78
2024/03/13 22:29:00;;;;;;;182.02;80.67;;;;;;;6.38;100.00;100822.47;4996527;57;1142591;-78
2024/03/13 22:34:06;;;;;;;133.37;61.70;;;;;;;6.35;100.00;100820.85;4996146;57;1144855;-76
2024/03/13 22:39:13;;;;;;;122.27;58.60;;;;;;;6.39;100.00;100819.38;5015105;57;1145073;-74
2024/03/13 22:44:18;;;;;;;179.53;73.60;;;;;;;6.51;100.00;100814.28;5078952;56;1144742;-83
2024/03/13 22:49:24;;;;;;;159.00;72.87;;;;;;;6.43;100.00;100813.00;5078644;55;1144853;-80